sensor_id;sensor_type;location;lat;lon;timestamp;P1;durP1;ratioP1;P2;durP2;ratioP2
21162;SDS011;10739;52.198;20.908;2024-01-27T00:00:40;15.32;;;7.05;;
21162;SDS011;10739;52.198;20.908;2024-01-27T00:03:06;11.73;;;6.00;;
21162;SDS011;10739;52.198;20.908;2024-01-27T00:05:33;12.27;;;4.30;;
21162;SDS011;10739;52.198;20.908;2024-01-27T00:07:59;15.13;;;4.00;;
21162;SDS011;10739;52.198;20.908;2024-01-27T00:10:25;10.43;;;3.13;;
21162;SDS011;10739;52.198;20.908;2024-01-27T00:12:52;7.85;;;2.80;;
21162;SDS011;10739;52.198;20.908;2024-01-27T00:15:18;11.65;;;2.80;;
21162;SDS011;10739;52.198;20.908;2024-01-27T00:17:44;6.43;;;2.33;;
21162;SDS011;10739;52.198;20.908;2024-01-27T00:20:10;9.02;;;2.20;;
21162;SDS011;10739;52.198;20.908;2024-01-27T00:22:37;6.07;;;2.17;;
21162;SDS011;10739;52.198;20.908;2024-01-27T00:25:03;7.07;;;2.08;;
21162;SDS011;10739;52.198;20.908;2024-01-27T00:27:30;8.35;;;2.28;;
21162;SDS011;10739;52.198;20.908;2024-01-27T00:29:57;7.25;;;1.95;;
21162;SDS011;10739;52.198;20.908;2024-01-27T00:32:23;9.50;;;2.30;;
21162;SDS011;10739;52.198;20.908;2024-01-27T00:34:50;7.70;;;2.30;;
21162;SDS011;10739;52.198;20.908;2024-01-27T00:37:16;11.27;;;2.35;;
21162;SDS011;10739;52.198;20.908;2024-01-27T00:39:43;9.38;;;1.92;;
21162;SDS011;10739;52.198;20.908;2024-01-27T00:42:10;11.02;;;1.75;;
21162;SDS011;10739;52.198;20.908;2024-01-27T00:44:37;8.55;;;1.92;;
21162;SDS011;10739;52.198;20.908;2024-01-27T00:47:03;10.40;;;2.47;;
21162;SDS011;10739;52.198;20.908;2024-01-27T00:49:30;16.90;;;2.33;;
21162;SDS011;10739;52.198;20.908;2024-01-27T00:51:59;13.45;;;3.10;;
21162;SDS011;10739;52.198;20.908;2024-01-27T00:54:25;9.80;;;2.15;;
21162;SDS011;10739;52.198;20.908;2024-01-27T00:56:52;9.48;;;2.22;;
21162;SDS011;10739;52.198;20.908;2024-01-27T00:59:19;12.13;;;1.70;;
21162;SDS011;10739;52.198;20.908;2024-01-27T01:01:46;9.93;;;2.10;;
21162;SDS011;10739;52.198;20.908;2024-01-27T01:04:12;9.15;;;2.30;;
21162;SDS011;10739;52.198;20.908;2024-01-27T01:06:39;13.27;;;3.40;;
21162;SDS011;10739;52.198;20.908;2024-01-27T01:09:06;10.32;;;2.33;;
21162;SDS011;10739;52.198;20.908;2024-01-27T01:11:32;12.30;;;2.30;;
21162;SDS011;10739;52.198;20.908;2024-01-27T01:13:59;12.25;;;1.95;;
21162;SDS011;10739;52.198;20.908;2024-01-27T01:16:26;12.40;;;2.65;;
21162;SDS011;10739;52.198;20.908;2024-01-27T01:18:52;9.25;;;2.63;;
21162;SDS011;10739;52.198;20.908;2024-01-27T01:21:18;19.23;;;2.65;;
21162;SDS011;10739;52.198;20.908;2024-01-27T01:23:45;8.02;;;2.30;;
21162;SDS011;10739;52.198;20.908;2024-01-27T01:26:11;12.48;;;2.55;;
21162;SDS011;10739;52.198;20.908;2024-01-27T01:28:37;12.35;;;2.80;;
21162;SDS011;10739;52.198;20.908;2024-01-27T01:31:06;10.55;;;2.05;;
21162;SDS011;10739;52.198;20.908;2024-01-27T01:33:33;8.07;;;1.85;;
21162;SDS011;10739;52.198;20.908;2024-01-27T01:35:59;13.57;;;2.38;;
21162;SDS011;10739;52.198;20.908;2024-01-27T01:38:26;11.27;;;2.40;;
21162;SDS011;10739;52.198;20.908;2024-01-27T01:40:52;8.43;;;2.15;;
21162;SDS011;10739;52.198;20.908;2024-01-27T01:43:19;13.73;;;2.75;;
21162;SDS011;10739;52.198;20.908;2024-01-27T01:45:45;17.42;;;3.40;;
21162;SDS011;10739;52.198;20.908;2024-01-27T01:48:11;6.93;;;2.33;;
21162;SDS011;10739;52.198;20.908;2024-01-27T01:50:38;11.57;;;2.20;;
21162;SDS011;10739;52.198;20.908;2024-01-27T01:53:05;13.25;;;2.40;;
21162;SDS011;10739;52.198;20.908;2024-01-27T01:55:32;13.57;;;2.58;;
21162;SDS011;10739;52.198;20.908;2024-01-27T01:57:59;14.07;;;2.33;;
21162;SDS011;10739;52.198;20.908;2024-01-27T02:00:25;9.10;;;2.00;;
21162;SDS011;10739;52.198;20.908;2024-01-27T02:02:51;16.48;;;3.20;;
21162;SDS011;10739;52.198;20.908;2024-01-27T02:05:18;17.42;;;2.47;;
21162;SDS011;10739;52.198;20.908;2024-01-27T02:07:44;12.90;;;2.35;;
21162;SDS011;10739;52.198;20.908;2024-01-27T02:10:14;15.20;;;3.65;;
21162;SDS011;10739;52.198;20.908;2024-01-27T02:12:42;11.73;;;2.45;;
21162;SDS011;10739;52.198;20.908;2024-01-27T02:15:10;12.77;;;2.92;;
21162;SDS011;10739;52.198;20.908;2024-01-27T02:17:39;16.75;;;3.08;;
21162;SDS011;10739;52.198;20.908;2024-01-27T02:20:07;20.67;;;2.67;;
21162;SDS011;10739;52.198;20.908;2024-01-27T02:22:34;13.85;;;2.60;;
21162;SDS011;10739;52.198;20.908;2024-01-27T02:25:04;13.32;;;3.33;;
21162;SDS011;10739;52.198;20.908;2024-01-27T02:27:31;18.10;;;2.83;;
21162;SDS011;10739;52.198;20.908;2024-01-27T02:29:57;13.18;;;2.88;;
21162;SDS011;10739;52.198;20.908;2024-01-27T02:32:23;13.07;;;2.80;;
21162;SDS011;10739;52.198;20.908;2024-01-27T02:34:50;13.30;;;2.67;;
21162;SDS011;10739;52.198;20.908;2024-01-27T02:37:16;14.10;;;2.65;;
21162;SDS011;10739;52.198;20.908;2024-01-27T02:39:44;11.95;;;2.90;;
21162;SDS011;10739;52.198;20.908;2024-01-27T02:42:10;17.48;;;2.80;;
21162;SDS011;10739;52.198;20.908;2024-01-27T02:44:38;13.43;;;3.05;;
21162;SDS011;10739;52.198;20.908;2024-01-27T02:47:04;10.63;;;2.80;;
21162;SDS011;10739;52.198;20.908;2024-01-27T02:49:30;15.18;;;3.08;;
21162;SDS011;10739;52.198;20.908;2024-01-27T02:51:57;11.30;;;2.75;;
21162;SDS011;10739;52.198;20.908;2024-01-27T02:54:23;14.45;;;2.63;;
21162;SDS011;10739;52.198;20.908;2024-01-27T02:56:49;17.90;;;2.80;;
21162;SDS011;10739;52.198;20.908;2024-01-27T02:59:15;20.60;;;3.35;;
21162;SDS011;10739;52.198;20.908;2024-01-27T03:01:42;11.75;;;3.05;;
21162;SDS011;10739;52.198;20.908;2024-01-27T03:04:08;15.18;;;2.65;;
21162;SDS011;10739;52.198;20.908;2024-01-27T03:06:35;15.13;;;3.13;;
21162;SDS011;10739;52.198;20.908;2024-01-27T03:09:01;19.52;;;2.78;;
21162;SDS011;10739;52.198;20.908;2024-01-27T03:11:30;18.88;;;3.08;;
21162;SDS011;10739;52.198;20.908;2024-01-27T03:13:56;16.33;;;3.22;;
21162;SDS011;10739;52.198;20.908;2024-01-27T03:16:23;17.75;;;3.53;;
21162;SDS011;10739;52.198;20.908;2024-01-27T03:18:49;25.63;;;3.47;;
21162;SDS011;10739;52.198;20.908;2024-01-27T03:21:15;17.80;;;2.90;;
21162;SDS011;10739;52.198;20.908;2024-01-27T03:23:41;19.90;;;3.08;;
21162;SDS011;10739;52.198;20.908;2024-01-27T03:26:07;13.30;;;3.05;;
21162;SDS011;10739;52.198;20.908;2024-01-27T03:28:34;16.25;;;3.15;;
21162;SDS011;10739;52.198;20.908;2024-01-27T03:31:00;19.65;;;3.97;;
21162;SDS011;10739;52.198;20.908;2024-01-27T03:33:26;19.42;;;4.47;;
21162;SDS011;10739;52.198;20.908;2024-01-27T03:35:54;19.52;;;3.30;;
21162;SDS011;10739;52.198;20.908;2024-01-27T03:38:21;16.17;;;3.00;;
21162;SDS011;10739;52.198;20.908;2024-01-27T03:40:47;14.18;;;3.88;;
21162;SDS011;10739;52.198;20.908;2024-01-27T03:43:13;13.43;;;3.08;;
21162;SDS011;10739;52.198;20.908;2024-01-27T03:45:39;17.38;;;3.38;;
21162;SDS011;10739;52.198;20.908;2024-01-27T03:48:06;20.33;;;3.47;;
21162;SDS011;10739;52.198;20.908;2024-01-27T03:50:32;16.98;;;3.63;;
21162;SDS011;10739;52.198;20.908;2024-01-27T03:52:59;15.38;;;3.47;;
21162;SDS011;10739;52.198;20.908;2024-01-27T03:55:25;15.63;;;3.03;;
21162;SDS011;10739;52.198;20.908;2024-01-27T03:57:51;14.73;;;3.28;;
21162;SDS011;10739;52.198;20.908;2024-01-27T04:00:17;23.00;;;3.60;;
21162;SDS011;10739;52.198;20.908;2024-01-27T04:02:44;17.35;;;4.28;;
21162;SDS011;10739;52.198;20.908;2024-01-27T04:05:10;13.90;;;3.53;;
21162;SDS011;10739;52.198;20.908;2024-01-27T04:07:36;15.60;;;3.25;;
21162;SDS011;10739;52.198;20.908;2024-01-27T04:10:03;15.35;;;3.28;;
21162;SDS011;10739;52.198;20.908;2024-01-27T04:12:30;17.13;;;3.08;;
21162;SDS011;10739;52.198;20.908;2024-01-27T04:14:57;16.35;;;3.60;;
21162;SDS011;10739;52.198;20.908;2024-01-27T04:17:25;15.95;;;3.75;;
21162;SDS011;10739;52.198;20.908;2024-01-27T04:19:51;16.73;;;3.28;;
21162;SDS011;10739;52.198;20.908;2024-01-27T04:22:17;19.33;;;3.60;;
21162;SDS011;10739;52.198;20.908;2024-01-27T04:24:44;9.25;;;3.28;;
21162;SDS011;10739;52.198;20.908;2024-01-27T04:27:10;16.48;;;3.45;;
21162;SDS011;10739;52.198;20.908;2024-01-27T04:29:36;18.58;;;4.07;;
21162;SDS011;10739;52.198;20.908;2024-01-27T04:32:03;23.42;;;3.67;;
21162;SDS011;10739;52.198;20.908;2024-01-27T04:34:29;13.20;;;3.80;;
21162;SDS011;10739;52.198;20.908;2024-01-27T04:36:57;18.45;;;3.65;;
21162;SDS011;10739;52.198;20.908;2024-01-27T04:39:23;18.48;;;3.53;;
21162;SDS011;10739;52.198;20.908;2024-01-27T04:41:50;18.73;;;3.92;;
21162;SDS011;10739;52.198;20.908;2024-01-27T04:44:20;15.85;;;3.42;;
21162;SDS011;10739;52.198;20.908;2024-01-27T04:46:47;17.55;;;3.63;;
21162;SDS011;10739;52.198;20.908;2024-01-27T04:49:16;13.55;;;3.38;;
21162;SDS011;10739;52.198;20.908;2024-01-27T04:51:43;22.45;;;4.05;;
21162;SDS011;10739;52.198;20.908;2024-01-27T04:54:09;14.10;;;3.28;;
21162;SDS011;10739;52.198;20.908;2024-01-27T04:56:35;17.77;;;4.18;;
21162;SDS011;10739;52.198;20.908;2024-01-27T04:59:02;16.35;;;3.53;;
21162;SDS011;10739;52.198;20.908;2024-01-27T05:01:28;16.85;;;3.67;;
21162;SDS011;10739;52.198;20.908;2024-01-27T05:03:54;22.50;;;4.13;;
21162;SDS011;10739;52.198;20.908;2024-01-27T05:06:20;20.75;;;4.28;;
21162;SDS011;10739;52.198;20.908;2024-01-27T05:08:46;18.98;;;3.42;;
21162;SDS011;10739;52.198;20.908;2024-01-27T05:11:13;15.52;;;3.25;;
21162;SDS011;10739;52.198;20.908;2024-01-27T05:13:42;24.00;;;4.50;;
21162;SDS011;10739;52.198;20.908;2024-01-27T05:16:09;15.32;;;3.28;;
21162;SDS011;10739;52.198;20.908;2024-01-27T05:18:35;22.42;;;4.05;;
21162;SDS011;10739;52.198;20.908;2024-01-27T05:21:01;15.63;;;3.42;;
21162;SDS011;10739;52.198;20.908;2024-01-27T05:23:28;21.15;;;3.67;;
21162;SDS011;10739;52.198;20.908;2024-01-27T05:25:55;19.15;;;2.72;;
21162;SDS011;10739;52.198;20.908;2024-01-27T05:28:21;16.23;;;3.92;;
21162;SDS011;10739;52.198;20.908;2024-01-27T05:30:47;18.65;;;3.85;;
21162;SDS011;10739;52.198;20.908;2024-01-27T05:33:14;22.48;;;4.50;;
21162;SDS011;10739;52.198;20.908;2024-01-27T05:35:41;17.08;;;3.53;;
21162;SDS011;10739;52.198;20.908;2024-01-27T05:38:08;17.13;;;3.28;;
21162;SDS011;10739;52.198;20.908;2024-01-27T05:40:34;16.23;;;3.28;;
21162;SDS011;10739;52.198;20.908;2024-01-27T05:43:00;14.88;;;3.05;;
21162;SDS011;10739;52.198;20.908;2024-01-27T05:45:26;24.38;;;3.85;;
21162;SDS011;10739;52.198;20.908;2024-01-27T05:47:54;19.45;;;4.80;;
21162;SDS011;10739;52.198;20.908;2024-01-27T05:50:20;17.73;;;3.88;;
21162;SDS011;10739;52.198;20.908;2024-01-27T05:52:46;26.83;;;3.55;;
21162;SDS011;10739;52.198;20.908;2024-01-27T05:55:13;19.98;;;3.72;;
21162;SDS011;10739;52.198;20.908;2024-01-27T05:57:39;21.55;;;3.58;;
21162;SDS011;10739;52.198;20.908;2024-01-27T06:00:05;17.20;;;3.05;;
21162;SDS011;10739;52.198;20.908;2024-01-27T06:02:34;18.98;;;3.50;;
21162;SDS011;10739;52.198;20.908;2024-01-27T06:05:02;19.85;;;3.67;;
21162;SDS011;10739;52.198;20.908;2024-01-27T06:07:28;18.58;;;3.63;;
21162;SDS011;10739;52.198;20.908;2024-01-27T06:09:54;15.98;;;3.38;;
21162;SDS011;10739;52.198;20.908;2024-01-27T06:12:21;12.00;;;3.20;;
21162;SDS011;10739;52.198;20.908;2024-01-27T06:14:48;24.35;;;4.55;;
21162;SDS011;10739;52.198;20.908;2024-01-27T06:17:14;18.02;;;3.72;;
21162;SDS011;10739;52.198;20.908;2024-01-27T06:19:41;15.30;;;3.28;;
21162;SDS011;10739;52.198;20.908;2024-01-27T06:22:08;14.85;;;4.00;;
21162;SDS011;10739;52.198;20.908;2024-01-27T06:24:34;12.57;;;3.58;;
21162;SDS011;10739;52.198;20.908;2024-01-27T06:27:00;20.88;;;3.60;;
21162;SDS011;10739;52.198;20.908;2024-01-27T06:29:27;16.40;;;3.95;;
21162;SDS011;10739;52.198;20.908;2024-01-27T06:31:54;22.90;;;4.28;;
21162;SDS011;10739;52.198;20.908;2024-01-27T06:34:20;21.52;;;4.30;;
21162;SDS011;10739;52.198;20.908;2024-01-27T06:36:47;20.20;;;3.90;;
21162;SDS011;10739;52.198;20.908;2024-01-27T06:39:13;18.25;;;3.90;;
21162;SDS011;10739;52.198;20.908;2024-01-27T06:41:39;22.58;;;3.83;;
21162;SDS011;10739;52.198;20.908;2024-01-27T06:44:06;25.75;;;4.63;;
21162;SDS011;10739;52.198;20.908;2024-01-27T06:46:33;18.00;;;4.13;;
21162;SDS011;10739;52.198;20.908;2024-01-27T06:48:59;15.63;;;4.18;;
21162;SDS011;10739;52.198;20.908;2024-01-27T06:51:25;24.85;;;4.35;;
21162;SDS011;10739;52.198;20.908;2024-01-27T06:53:52;23.02;;;4.15;;
21162;SDS011;10739;52.198;20.908;2024-01-27T06:56:18;22.10;;;3.78;;
21162;SDS011;10739;52.198;20.908;2024-01-27T06:58:44;11.18;;;3.72;;
21162;SDS011;10739;52.198;20.908;2024-01-27T07:01:11;30.50;;;5.15;;
21162;SDS011;10739;52.198;20.908;2024-01-27T07:03:37;21.55;;;4.43;;
21162;SDS011;10739;52.198;20.908;2024-01-27T07:06:05;25.40;;;4.18;;
21162;SDS011;10739;52.198;20.908;2024-01-27T07:08:31;24.42;;;4.55;;
21162;SDS011;10739;52.198;20.908;2024-01-27T07:10:58;22.85;;;4.72;;
21162;SDS011;10739;52.198;20.908;2024-01-27T07:13:24;27.13;;;5.60;;
21162;SDS011;10739;52.198;20.908;2024-01-27T07:15:52;25.95;;;5.00;;
21162;SDS011;10739;52.198;20.908;2024-01-27T07:18:18;28.83;;;5.97;;
21162;SDS011;10739;52.198;20.908;2024-01-27T07:20:45;20.25;;;5.28;;
21162;SDS011;10739;52.198;20.908;2024-01-27T07:23:11;21.02;;;6.30;;
21162;SDS011;10739;52.198;20.908;2024-01-27T07:25:37;26.30;;;6.10;;
21162;SDS011;10739;52.198;20.908;2024-01-27T07:28:04;26.45;;;4.68;;
21162;SDS011;10739;52.198;20.908;2024-01-27T07:30:30;18.85;;;4.47;;
21162;SDS011;10739;52.198;20.908;2024-01-27T07:32:57;18.17;;;4.60;;
21162;SDS011;10739;52.198;20.908;2024-01-27T07:35:23;18.40;;;4.30;;
21162;SDS011;10739;52.198;20.908;2024-01-27T07:37:49;16.55;;;5.10;;
21162;SDS011;10739;52.198;20.908;2024-01-27T07:40:16;22.40;;;5.72;;
21162;SDS011;10739;52.198;20.908;2024-01-27T07:42:42;21.70;;;6.28;;
21162;SDS011;10739;52.198;20.908;2024-01-27T07:45:08;17.60;;;4.55;;
21162;SDS011;10739;52.198;20.908;2024-01-27T07:47:36;17.75;;;5.05;;
21162;SDS011;10739;52.198;20.908;2024-01-27T07:50:02;18.90;;;5.38;;
21162;SDS011;10739;52.198;20.908;2024-01-27T07:52:29;24.85;;;5.93;;
21162;SDS011;10739;52.198;20.908;2024-01-27T07:54:56;17.92;;;5.43;;
21162;SDS011;10739;52.198;20.908;2024-01-27T07:57:22;19.85;;;5.07;;
21162;SDS011;10739;52.198;20.908;2024-01-27T07:59:49;27.05;;;6.10;;
21162;SDS011;10739;52.198;20.908;2024-01-27T08:02:15;22.63;;;5.32;;
21162;SDS011;10739;52.198;20.908;2024-01-27T08:04:42;22.88;;;6.45;;
21162;SDS011;10739;52.198;20.908;2024-01-27T08:07:08;25.30;;;6.32;;
21162;SDS011;10739;52.198;20.908;2024-01-27T08:09:40;21.58;;;6.03;;
21162;SDS011;10739;52.198;20.908;2024-01-27T08:12:06;17.45;;;6.07;;
21162;SDS011;10739;52.198;20.908;2024-01-27T08:14:33;21.77;;;6.07;;
21162;SDS011;10739;52.198;20.908;2024-01-27T08:17:01;23.42;;;5.78;;
21162;SDS011;10739;52.198;20.908;2024-01-27T08:19:28;24.98;;;5.60;;
21162;SDS011;10739;52.198;20.908;2024-01-27T08:21:55;18.45;;;5.40;;
21162;SDS011;10739;52.198;20.908;2024-01-27T08:24:21;19.15;;;5.80;;
21162;SDS011;10739;52.198;20.908;2024-01-27T08:26:49;20.73;;;6.00;;
21162;SDS011;10739;52.198;20.908;2024-01-27T08:29:16;25.67;;;6.70;;
21162;SDS011;10739;52.198;20.908;2024-01-27T08:31:43;27.10;;;6.07;;
21162;SDS011;10739;52.198;20.908;2024-01-27T08:34:09;19.15;;;7.40;;
21162;SDS011;10739;52.198;20.908;2024-01-27T08:36:37;20.65;;;6.00;;
21162;SDS011;10739;52.198;20.908;2024-01-27T08:39:04;24.52;;;6.60;;
21162;SDS011;10739;52.198;20.908;2024-01-27T08:41:32;19.95;;;6.32;;
21162;SDS011;10739;52.198;20.908;2024-01-27T08:43:59;15.93;;;6.47;;
21162;SDS011;10739;52.198;20.908;2024-01-27T08:46:25;20.17;;;6.03;;
21162;SDS011;10739;52.198;20.908;2024-01-27T08:48:52;14.73;;;6.25;;
21162;SDS011;10739;52.198;20.908;2024-01-27T08:51:18;22.20;;;6.15;;
21162;SDS011;10739;52.198;20.908;2024-01-27T08:53:45;21.70;;;6.55;;
21162;SDS011;10739;52.198;20.908;2024-01-27T08:56:14;20.98;;;6.85;;
21162;SDS011;10739;52.198;20.908;2024-01-27T08:58:43;30.40;;;7.55;;
21162;SDS011;10739;52.198;20.908;2024-01-27T09:01:10;19.65;;;6.65;;
21162;SDS011;10739;52.198;20.908;2024-01-27T09:03:40;15.80;;;6.07;;
21162;SDS011;10739;52.198;20.908;2024-01-27T09:06:06;14.63;;;6.70;;
21162;SDS011;10739;52.198;20.908;2024-01-27T09:08:33;22.15;;;7.30;;
21162;SDS011;10739;52.198;20.908;2024-01-27T09:11:00;19.83;;;6.60;;
21162;SDS011;10739;52.198;20.908;2024-01-27T09:13:28;37.35;;;12.98;;
21162;SDS011;10739;52.198;20.908;2024-01-27T09:15:56;22.45;;;7.90;;
21162;SDS011;10739;52.198;20.908;2024-01-27T09:18:24;23.10;;;8.02;;
21162;SDS011;10739;52.198;20.908;2024-01-27T09:20:52;24.02;;;7.55;;
21162;SDS011;10739;52.198;20.908;2024-01-27T09:23:18;21.73;;;7.13;;
21162;SDS011;10739;52.198;20.908;2024-01-27T09:25:44;21.27;;;7.07;;
21162;SDS011;10739;52.198;20.908;2024-01-27T09:28:11;20.67;;;7.25;;
21162;SDS011;10739;52.198;20.908;2024-01-27T09:30:37;19.40;;;6.43;;
21162;SDS011;10739;52.198;20.908;2024-01-27T09:33:04;17.48;;;6.50;;
21162;SDS011;10739;52.198;20.908;2024-01-27T09:35:30;17.67;;;5.80;;
21162;SDS011;10739;52.198;20.908;2024-01-27T09:37:56;21.30;;;6.25;;
21162;SDS011;10739;52.198;20.908;2024-01-27T09:40:23;13.27;;;6.15;;
21162;SDS011;10739;52.198;20.908;2024-01-27T09:42:53;19.33;;;6.38;;
21162;SDS011;10739;52.198;20.908;2024-01-27T09:45:26;11.48;;;6.07;;
21162;SDS011;10739;52.198;20.908;2024-01-27T09:47:52;17.30;;;5.90;;
21162;SDS011;10739;52.198;20.908;2024-01-27T09:50:22;17.05;;;6.57;;
21162;SDS011;10739;52.198;20.908;2024-01-27T09:52:49;14.98;;;5.70;;
21162;SDS011;10739;52.198;20.908;2024-01-27T09:55:15;20.35;;;5.50;;
21162;SDS011;10739;52.198;20.908;2024-01-27T09:57:41;16.20;;;7.10;;
21162;SDS011;10739;52.198;20.908;2024-01-27T10:00:11;11.00;;;5.40;;
21162;SDS011;10739;52.198;20.908;2024-01-27T10:02:39;10.23;;;5.30;;
21162;SDS011;10739;52.198;20.908;2024-01-27T10:05:09;10.32;;;4.95;;
21162;SDS011;10739;52.198;20.908;2024-01-27T10:07:37;13.05;;;5.03;;
21162;SDS011;10739;52.198;20.908;2024-01-27T10:10:05;14.68;;;4.85;;
21162;SDS011;10739;52.198;20.908;2024-01-27T10:12:32;11.63;;;4.68;;
21162;SDS011;10739;52.198;20.908;2024-01-27T10:17:31;11.05;;;4.95;;
21162;SDS011;10739;52.198;20.908;2024-01-27T10:20:02;8.27;;;4.22;;
21162;SDS011;10739;52.198;20.908;2024-01-27T10:22:40;8.48;;;3.90;;
21162;SDS011;10739;52.198;20.908;2024-01-27T10:25:09;9.93;;;4.60;;
21162;SDS011;10739;52.198;20.908;2024-01-27T10:27:36;5.55;;;3.88;;
21162;SDS011;10739;52.198;20.908;2024-01-27T10:30:03;11.38;;;4.30;;
21162;SDS011;10739;52.198;20.908;2024-01-27T10:32:32;5.85;;;4.00;;
21162;SDS011;10739;52.198;20.908;2024-01-27T10:35:03;8.27;;;3.95;;
21162;SDS011;10739;52.198;20.908;2024-01-27T10:37:37;7.25;;;3.90;;
21162;SDS011;10739;52.198;20.908;2024-01-27T10:40:05;6.28;;;4.10;;
21162;SDS011;10739;52.198;20.908;2024-01-27T10:42:34;12.00;;;3.92;;
21162;SDS011;10739;52.198;20.908;2024-01-27T10:45:02;10.73;;;3.88;;
21162;SDS011;10739;52.198;20.908;2024-01-27T10:47:30;9.25;;;3.40;;
21162;SDS011;10739;52.198;20.908;2024-01-27T10:50:00;4.65;;;3.22;;
21162;SDS011;10739;52.198;20.908;2024-01-27T10:52:31;4.25;;;3.58;;
21162;SDS011;10739;52.198;20.908;2024-01-27T10:54:58;7.13;;;3.80;;
21162;SDS011;10739;52.198;20.908;2024-01-27T10:57:27;4.95;;;3.10;;
21162;SDS011;10739;52.198;20.908;2024-01-27T10:59:56;8.25;;;3.75;;
21162;SDS011;10739;52.198;20.908;2024-01-27T11:02:23;5.10;;;3.30;;
21162;SDS011;10739;52.198;20.908;2024-01-27T11:04:50;5.85;;;3.15;;
21162;SDS011;10739;52.198;20.908;2024-01-27T11:07:20;4.72;;;2.95;;
21162;SDS011;10739;52.198;20.908;2024-01-27T11:09:49;8.23;;;3.60;;
21162;SDS011;10739;52.198;20.908;2024-01-27T11:12:19;6.30;;;3.20;;
21162;SDS011;10739;52.198;20.908;2024-01-27T11:14:48;6.57;;;2.80;;
21162;SDS011;10739;52.198;20.908;2024-01-27T11:17:15;7.28;;;2.83;;
21162;SDS011;10739;52.198;20.908;2024-01-27T11:19:42;5.10;;;2.70;;
21162;SDS011;10739;52.198;20.908;2024-01-27T11:22:23;5.40;;;3.20;;
21162;SDS011;10739;52.198;20.908;2024-01-27T11:27:43;5.30;;;2.85;;
21162;SDS011;10739;52.198;20.908;2024-01-27T11:30:28;3.45;;;2.63;;
21162;SDS011;10739;52.198;20.908;2024-01-27T11:33:00;6.03;;;2.70;;
21162;SDS011;10739;52.198;20.908;2024-01-27T11:35:28;4.45;;;3.33;;
21162;SDS011;10739;52.198;20.908;2024-01-27T11:37:54;6.50;;;3.10;;
21162;SDS011;10739;52.198;20.908;2024-01-27T11:40:21;4.47;;;2.92;;
21162;SDS011;10739;52.198;20.908;2024-01-27T11:42:54;4.07;;;2.60;;
21162;SDS011;10739;52.198;20.908;2024-01-27T11:45:26;2.85;;;2.47;;
21162;SDS011;10739;52.198;20.908;2024-01-27T11:47:55;4.80;;;2.65;;
21162;SDS011;10739;52.198;20.908;2024-01-27T11:50:22;4.18;;;3.17;;
21162;SDS011;10739;52.198;20.908;2024-01-27T11:52:49;3.20;;;2.63;;
21162;SDS011;10739;52.198;20.908;2024-01-27T11:55:15;3.15;;;2.80;;
21162;SDS011;10739;52.198;20.908;2024-01-27T11:57:44;4.43;;;2.70;;
21162;SDS011;10739;52.198;20.908;2024-01-27T12:00:11;2.75;;;2.38;;
21162;SDS011;10739;52.198;20.908;2024-01-27T12:02:38;3.42;;;2.70;;
21162;SDS011;10739;52.198;20.908;2024-01-27T12:05:05;5.10;;;2.55;;
21162;SDS011;10739;52.198;20.908;2024-01-27T12:07:32;5.93;;;2.80;;
21162;SDS011;10739;52.198;20.908;2024-01-27T12:09:59;3.83;;;2.90;;
21162;SDS011;10739;52.198;20.908;2024-01-27T12:12:25;3.40;;;3.10;;
21162;SDS011;10739;52.198;20.908;2024-01-27T12:14:52;4.45;;;3.47;;
21162;SDS011;10739;52.198;20.908;2024-01-27T12:17:19;5.15;;;3.53;;
21162;SDS011;10739;52.198;20.908;2024-01-27T12:19:51;3.78;;;3.38;;
21162;SDS011;10739;52.198;20.908;2024-01-27T12:24:55;5.30;;;4.28;;
21162;SDS011;10739;52.198;20.908;2024-01-27T12:27:34;4.88;;;4.15;;
21162;SDS011;10739;52.198;20.908;2024-01-27T12:30:01;4.90;;;3.97;;
21162;SDS011;10739;52.198;20.908;2024-01-27T12:32:28;6.32;;;3.58;;
21162;SDS011;10739;52.198;20.908;2024-01-27T12:34:57;5.50;;;3.97;;
21162;SDS011;10739;52.198;20.908;2024-01-27T12:37:25;4.97;;;3.90;;
21162;SDS011;10739;52.198;20.908;2024-01-27T12:39:52;4.75;;;4.15;;
21162;SDS011;10739;52.198;20.908;2024-01-27T12:42:18;4.70;;;4.25;;
21162;SDS011;10739;52.198;20.908;2024-01-27T12:44:44;4.88;;;4.10;;
21162;SDS011;10739;52.198;20.908;2024-01-27T12:47:11;5.13;;;4.28;;
21162;SDS011;10739;52.198;20.908;2024-01-27T12:49:39;4.65;;;4.07;;
21162;SDS011;10739;52.198;20.908;2024-01-27T12:52:08;5.55;;;4.03;;
21162;SDS011;10739;52.198;20.908;2024-01-27T12:54:35;4.82;;;3.90;;
21162;SDS011;10739;52.198;20.908;2024-01-27T12:57:01;6.05;;;4.10;;
21162;SDS011;10739;52.198;20.908;2024-01-27T12:59:28;5.00;;;3.90;;
21162;SDS011;10739;52.198;20.908;2024-01-27T13:01:54;5.78;;;4.03;;
21162;SDS011;10739;52.198;20.908;2024-01-27T13:04:21;5.50;;;4.22;;
21162;SDS011;10739;52.198;20.908;2024-01-27T13:06:48;6.78;;;4.35;;
21162;SDS011;10739;52.198;20.908;2024-01-27T13:09:14;4.80;;;3.88;;
21162;SDS011;10739;52.198;20.908;2024-01-27T13:11:40;5.90;;;3.90;;
21162;SDS011;10739;52.198;20.908;2024-01-27T13:14:08;6.07;;;4.03;;
21162;SDS011;10739;52.198;20.908;2024-01-27T13:16:35;4.63;;;3.38;;
21162;SDS011;10739;52.198;20.908;2024-01-27T13:19:01;4.20;;;3.80;;
21162;SDS011;10739;52.198;20.908;2024-01-27T13:21:27;5.35;;;3.92;;
21162;SDS011;10739;52.198;20.908;2024-01-27T13:23:53;6.82;;;4.22;;
21162;SDS011;10739;52.198;20.908;2024-01-27T13:26:20;5.72;;;3.92;;
21162;SDS011;10739;52.198;20.908;2024-01-27T13:28:46;4.05;;;3.58;;
21162;SDS011;10739;52.198;20.908;2024-01-27T13:31:15;5.00;;;3.50;;
21162;SDS011;10739;52.198;20.908;2024-01-27T13:33:42;3.65;;;3.28;;
21162;SDS011;10739;52.198;20.908;2024-01-27T13:36:08;5.18;;;3.70;;
21162;SDS011;10739;52.198;20.908;2024-01-27T13:38:35;3.30;;;3.00;;
21162;SDS011;10739;52.198;20.908;2024-01-27T13:41:04;4.03;;;3.42;;
21162;SDS011;10739;52.198;20.908;2024-01-27T13:43:30;4.00;;;3.40;;
21162;SDS011;10739;52.198;20.908;2024-01-27T13:45:56;4.38;;;3.45;;
21162;SDS011;10739;52.198;20.908;2024-01-27T13:48:23;3.45;;;3.10;;
21162;SDS011;10739;52.198;20.908;2024-01-27T13:50:49;3.45;;;3.05;;
21162;SDS011;10739;52.198;20.908;2024-01-27T13:53:16;3.75;;;3.33;;
21162;SDS011;10739;52.198;20.908;2024-01-27T13:55:43;4.97;;;3.10;;
21162;SDS011;10739;52.198;20.908;2024-01-27T13:58:10;3.58;;;2.97;;
21162;SDS011;10739;52.198;20.908;2024-01-27T14:00:36;3.25;;;2.92;;
21162;SDS011;10739;52.198;20.908;2024-01-27T14:03:02;4.50;;;2.95;;
21162;SDS011;10739;52.198;20.908;2024-01-27T14:05:29;3.88;;;2.88;;
21162;SDS011;10739;52.198;20.908;2024-01-27T14:07:55;3.67;;;2.78;;
21162;SDS011;10739;52.198;20.908;2024-01-27T14:10:21;3.58;;;2.92;;
21162;SDS011;10739;52.198;20.908;2024-01-27T14:12:49;4.80;;;3.10;;
21162;SDS011;10739;52.198;20.908;2024-01-27T14:15:16;5.25;;;2.95;;
21162;SDS011;10739;52.198;20.908;2024-01-27T14:17:42;3.78;;;2.80;;
21162;SDS011;10739;52.198;20.908;2024-01-27T14:20:12;3.70;;;2.88;;
21162;SDS011;10739;52.198;20.908;2024-01-27T14:22:38;4.05;;;2.88;;
21162;SDS011;10739;52.198;20.908;2024-01-27T14:25:05;3.55;;;2.60;;
21162;SDS011;10739;52.198;20.908;2024-01-27T14:27:33;3.70;;;2.60;;
21162;SDS011;10739;52.198;20.908;2024-01-27T14:30:00;3.72;;;2.70;;
21162;SDS011;10739;52.198;20.908;2024-01-27T14:32:26;2.88;;;2.60;;